sensor_id;sensor_type;location;lat;lon;timestamp;P1;durP1;ratioP1;P2;durP2;ratioP2
20073;SDS011;10197;54.282;10.078;2023-07-20T00:00:30;3.63;;;2.35;;
20073;SDS011;10197;54.282;10.078;2023-07-20T00:03:09;2.80;;;2.08;;
20073;SDS011;10197;54.282;10.078;2023-07-20T00:05:39;2.05;;;1.85;;
20073;SDS011;10197;54.282;10.078;2023-07-20T00:08:06;2.13;;;2.03;;
20073;SDS011;10197;54.282;10.078;2023-07-20T00:10:33;4.13;;;2.00;;
20073;SDS011;10197;54.282;10.078;2023-07-20T00:12:59;3.35;;;2.15;;
20073;SDS011;10197;54.282;10.078;2023-07-20T00:15:26;2.95;;;2.20;;
20073;SDS011;10197;54.282;10.078;2023-07-20T00:17:53;2.28;;;2.00;;
20073;SDS011;10197;54.282;10.078;2023-07-20T00:20:21;2.15;;;2.00;;
20073;SDS011;10197;54.282;10.078;2023-07-20T00:22:51;2.85;;;2.58;;
20073;SDS011;10197;54.282;10.078;2023-07-20T00:25:20;2.22;;;1.77;;
20073;SDS011;10197;54.282;10.078;2023-07-20T00:27:46;2.42;;;2.20;;
20073;SDS011;10197;54.282;10.078;2023-07-20T00:30:13;2.92;;;1.80;;
20073;SDS011;10197;54.282;10.078;2023-07-20T00:32:40;2.65;;;1.90;;
20073;SDS011;10197;54.282;10.078;2023-07-20T00:35:08;3.10;;;2.20;;
20073;SDS011;10197;54.282;10.078;2023-07-20T00:37:36;2.45;;;2.00;;
20073;SDS011;10197;54.282;10.078;2023-07-20T00:40:05;3.50;;;2.30;;
20073;SDS011;10197;54.282;10.078;2023-07-20T00:42:33;2.40;;;2.20;;
20073;SDS011;10197;54.282;10.078;2023-07-20T00:45:02;2.53;;;2.33;;
20073;SDS011;10197;54.282;10.078;2023-07-20T00:47:29;2.63;;;2.40;;
20073;SDS011;10197;54.282;10.078;2023-07-20T00:49:56;2.55;;;2.35;;
20073;SDS011;10197;54.282;10.078;2023-07-20T00:52:23;2.60;;;2.38;;
20073;SDS011;10197;54.282;10.078;2023-07-20T00:54:50;3.15;;;2.53;;
20073;SDS011;10197;54.282;10.078;2023-07-20T00:57:18;3.28;;;2.72;;
20073;SDS011;10197;54.282;10.078;2023-07-20T01:03:33;3.20;;;2.20;;
20073;SDS011;10197;54.282;10.078;2023-07-20T01:06:01;3.65;;;2.38;;
20073;SDS011;10197;54.282;10.078;2023-07-20T01:08:32;2.90;;;2.40;;
20073;SDS011;10197;54.282;10.078;2023-07-20T01:11:02;3.22;;;2.35;;
20073;SDS011;10197;54.282;10.078;2023-07-20T01:13:34;4.63;;;3.00;;
20073;SDS011;10197;54.282;10.078;2023-07-20T01:16:01;3.38;;;2.50;;
20073;SDS011;10197;54.282;10.078;2023-07-20T01:18:29;2.90;;;2.60;;
20073;SDS011;10197;54.282;10.078;2023-07-20T01:20:55;4.13;;;2.70;;
20073;SDS011;10197;54.282;10.078;2023-07-20T01:23:41;4.03;;;2.72;;
20073;SDS011;10197;54.282;10.078;2023-07-20T01:26:24;3.10;;;2.88;;
20073;SDS011;10197;54.282;10.078;2023-07-20T01:29:03;3.85;;;3.10;;
20073;SDS011;10197;54.282;10.078;2023-07-20T01:31:49;3.55;;;2.97;;
20073;SDS011;10197;54.282;10.078;2023-07-20T01:34:17;4.05;;;2.80;;
20073;SDS011;10197;54.282;10.078;2023-07-20T01:36:45;4.38;;;3.03;;
20073;SDS011;10197;54.282;10.078;2023-07-20T01:39:12;4.38;;;3.25;;
20073;SDS011;10197;54.282;10.078;2023-07-20T01:41:39;2.95;;;2.65;;
20073;SDS011;10197;54.282;10.078;2023-07-20T01:44:07;5.40;;;3.33;;
20073;SDS011;10197;54.282;10.078;2023-07-20T01:46:36;4.85;;;3.17;;
20073;SDS011;10197;54.282;10.078;2023-07-20T01:49:05;3.85;;;2.80;;
20073;SDS011;10197;54.282;10.078;2023-07-20T01:51:32;4.13;;;3.08;;
20073;SDS011;10197;54.282;10.078;2023-07-20T01:53:58;6.35;;;3.33;;
20073;SDS011;10197;54.282;10.078;2023-07-20T01:56:26;3.20;;;2.88;;
20073;SDS011;10197;54.282;10.078;2023-07-20T01:58:52;3.83;;;3.17;;
20073;SDS011;10197;54.282;10.078;2023-07-20T02:01:19;4.50;;;2.92;;
20073;SDS011;10197;54.282;10.078;2023-07-20T02:03:45;3.40;;;3.20;;
20073;SDS011;10197;54.282;10.078;2023-07-20T02:06:13;4.43;;;4.00;;
20073;SDS011;10197;54.282;10.078;2023-07-20T02:08:40;4.93;;;3.67;;
20073;SDS011;10197;54.282;10.078;2023-07-20T02:11:07;3.83;;;3.45;;
20073;SDS011;10197;54.282;10.078;2023-07-20T02:13:35;5.10;;;3.33;;
20073;SDS011;10197;54.282;10.078;2023-07-20T02:16:02;3.55;;;3.13;;
20073;SDS011;10197;54.282;10.078;2023-07-20T02:18:29;4.70;;;3.45;;
20073;SDS011;10197;54.282;10.078;2023-07-20T02:20:56;4.00;;;3.03;;
20073;SDS011;10197;54.282;10.078;2023-07-20T02:23:24;3.40;;;3.10;;
20073;SDS011;10197;54.282;10.078;2023-07-20T02:25:53;3.83;;;3.50;;
20073;SDS011;10197;54.282;10.078;2023-07-20T02:28:20;4.15;;;3.30;;
20073;SDS011;10197;54.282;10.078;2023-07-20T02:30:46;3.38;;;3.08;;
20073;SDS011;10197;54.282;10.078;2023-07-20T02:33:15;4.15;;;3.47;;
20073;SDS011;10197;54.282;10.078;2023-07-20T02:35:42;5.10;;;3.70;;
20073;SDS011;10197;54.282;10.078;2023-07-20T02:38:08;3.58;;;3.28;;
20073;SDS011;10197;54.282;10.078;2023-07-20T02:40:37;3.70;;;3.28;;
20073;SDS011;10197;54.282;10.078;2023-07-20T02:43:03;4.18;;;3.00;;
20073;SDS011;10197;54.282;10.078;2023-07-20T02:45:31;3.30;;;3.00;;
20073;SDS011;10197;54.282;10.078;2023-07-20T02:47:57;4.05;;;3.40;;
20073;SDS011;10197;54.282;10.078;2023-07-20T02:50:24;3.63;;;3.28;;
20073;SDS011;10197;54.282;10.078;2023-07-20T02:52:51;4.88;;;3.47;;
20073;SDS011;10197;54.282;10.078;2023-07-20T02:55:17;5.18;;;3.40;;
20073;SDS011;10197;54.282;10.078;2023-07-20T02:57:45;4.50;;;3.80;;
20073;SDS011;10197;54.282;10.078;2023-07-20T03:00:12;4.47;;;4.03;;
20073;SDS011;10197;54.282;10.078;2023-07-20T03:02:41;4.78;;;3.85;;
20073;SDS011;10197;54.282;10.078;2023-07-20T03:05:08;3.67;;;3.30;;
20073;SDS011;10197;54.282;10.078;2023-07-20T03:07:35;3.80;;;3.50;;
20073;SDS011;10197;54.282;10.078;2023-07-20T03:10:03;3.40;;;3.10;;
20073;SDS011;10197;54.282;10.078;2023-07-20T03:12:32;5.07;;;3.38;;
20073;SDS011;10197;54.282;10.078;2023-07-20T03:15:01;5.05;;;3.50;;
20073;SDS011;10197;54.282;10.078;2023-07-20T03:17:28;3.80;;;3.45;;
20073;SDS011;10197;54.282;10.078;2023-07-20T03:19:55;3.95;;;3.00;;
20073;SDS011;10197;54.282;10.078;2023-07-20T03:22:22;2.80;;;2.60;;
20073;SDS011;10197;54.282;10.078;2023-07-20T03:24:49;3.22;;;2.30;;
20073;SDS011;10197;54.282;10.078;2023-07-20T03:27:17;2.97;;;2.55;;
20073;SDS011;10197;54.282;10.078;2023-07-20T03:29:44;3.00;;;2.65;;
20073;SDS011;10197;54.282;10.078;2023-07-20T03:32:12;2.63;;;2.30;;
20073;SDS011;10197;54.282;10.078;2023-07-20T03:34:39;4.57;;;3.15;;
20073;SDS011;10197;54.282;10.078;2023-07-20T03:37:06;3.85;;;2.95;;
20073;SDS011;10197;54.282;10.078;2023-07-20T03:39:33;4.15;;;3.25;;
20073;SDS011;10197;54.282;10.078;2023-07-20T03:42:00;2.90;;;2.67;;
20073;SDS011;10197;54.282;10.078;2023-07-20T03:44:26;2.90;;;2.58;;
20073;SDS011;10197;54.282;10.078;2023-07-20T03:46:54;3.92;;;2.80;;
20073;SDS011;10197;54.282;10.078;2023-07-20T03:49:22;3.65;;;2.67;;
20073;SDS011;10197;54.282;10.078;2023-07-20T03:51:49;4.65;;;2.65;;
20073;SDS011;10197;54.282;10.078;2023-07-20T03:54:15;3.17;;;2.80;;
20073;SDS011;10197;54.282;10.078;2023-07-20T03:56:43;3.03;;;2.80;;
20073;SDS011;10197;54.282;10.078;2023-07-20T03:59:13;3.25;;;2.88;;
20073;SDS011;10197;54.282;10.078;2023-07-20T04:01:40;4.68;;;3.10;;
20073;SDS011;10197;54.282;10.078;2023-07-20T04:04:07;5.60;;;3.55;;
20073;SDS011;10197;54.282;10.078;2023-07-20T04:06:35;5.05;;;3.25;;
20073;SDS011;10197;54.282;10.078;2023-07-20T04:09:02;6.00;;;3.25;;
20073;SDS011;10197;54.282;10.078;2023-07-20T04:11:30;4.53;;;2.92;;
20073;SDS011;10197;54.282;10.078;2023-07-20T04:13:57;3.30;;;3.00;;
20073;SDS011;10197;54.282;10.078;2023-07-20T04:16:23;3.88;;;2.80;;
20073;SDS011;10197;54.282;10.078;2023-07-20T04:18:51;6.30;;;2.47;;
20073;SDS011;10197;54.282;10.078;2023-07-20T04:21:18;4.40;;;3.08;;
20073;SDS011;10197;54.282;10.078;2023-07-20T04:23:46;3.08;;;2.40;;
20073;SDS011;10197;54.282;10.078;2023-07-20T04:26:13;4.65;;;2.78;;
20073;SDS011;10197;54.282;10.078;2023-07-20T04:28:40;3.15;;;2.85;;
20073;SDS011;10197;54.282;10.078;2023-07-20T04:31:11;4.30;;;2.70;;
20073;SDS011;10197;54.282;10.078;2023-07-20T04:33:38;2.72;;;2.50;;
20073;SDS011;10197;54.282;10.078;2023-07-20T04:36:05;3.85;;;2.20;;
20073;SDS011;10197;54.282;10.078;2023-07-20T04:38:34;3.53;;;2.10;;
20073;SDS011;10197;54.282;10.078;2023-07-20T04:41:16;2.50;;;2.30;;
20073;SDS011;10197;54.282;10.078;2023-07-20T04:43:45;4.63;;;2.50;;
20073;SDS011;10197;54.282;10.078;2023-07-20T04:46:16;3.15;;;2.00;;
20073;SDS011;10197;54.282;10.078;2023-07-20T04:48:44;5.35;;;2.55;;
20073;SDS011;10197;54.282;10.078;2023-07-20T04:51:13;3.50;;;2.33;;
20073;SDS011;10197;54.282;10.078;2023-07-20T04:53:40;4.10;;;2.15;;
20073;SDS011;10197;54.282;10.078;2023-07-20T04:56:08;6.28;;;2.50;;
20073;SDS011;10197;54.282;10.078;2023-07-20T04:58:37;2.80;;;1.98;;
20073;SDS011;10197;54.282;10.078;2023-07-20T05:01:04;3.72;;;1.80;;
20073;SDS011;10197;54.282;10.078;2023-07-20T05:03:34;4.63;;;1.80;;
20073;SDS011;10197;54.282;10.078;2023-07-20T05:06:02;2.88;;;1.95;;
20073;SDS011;10197;54.282;10.078;2023-07-20T05:08:28;3.08;;;1.75;;
20073;SDS011;10197;54.282;10.078;2023-07-20T05:10:55;2.00;;;1.80;;
20073;SDS011;10197;54.282;10.078;2023-07-20T05:13:23;6.35;;;1.75;;
20073;SDS011;10197;54.282;10.078;2023-07-20T05:15:52;3.97;;;1.63;;
20073;SDS011;10197;54.282;10.078;2023-07-20T05:18:21;4.13;;;1.92;;
20073;SDS011;10197;54.282;10.078;2023-07-20T05:20:49;2.67;;;1.60;;
20073;SDS011;10197;54.282;10.078;2023-07-20T05:23:17;4.05;;;1.45;;
20073;SDS011;10197;54.282;10.078;2023-07-20T05:25:44;2.58;;;1.77;;
20073;SDS011;10197;54.282;10.078;2023-07-20T05:28:11;2.72;;;1.60;;
20073;SDS011;10197;54.282;10.078;2023-07-20T05:30:39;1.85;;;1.40;;
20073;SDS011;10197;54.282;10.078;2023-07-20T05:33:07;3.38;;;1.40;;
20073;SDS011;10197;54.282;10.078;2023-07-20T05:35:34;2.72;;;1.88;;
20073;SDS011;10197;54.282;10.078;2023-07-20T05:38:02;2.67;;;1.70;;
20073;SDS011;10197;54.282;10.078;2023-07-20T05:40:30;3.25;;;1.65;;
20073;SDS011;10197;54.282;10.078;2023-07-20T05:42:57;5.00;;;1.95;;
20073;SDS011;10197;54.282;10.078;2023-07-20T05:45:25;3.55;;;2.20;;
20073;SDS011;10197;54.282;10.078;2023-07-20T05:47:52;3.13;;;1.95;;
20073;SDS011;10197;54.282;10.078;2023-07-20T05:50:20;6.05;;;2.17;;
20073;SDS011;10197;54.282;10.078;2023-07-20T05:52:47;3.70;;;2.60;;
20073;SDS011;10197;54.282;10.078;2023-07-20T05:55:13;4.43;;;2.60;;
20073;SDS011;10197;54.282;10.078;2023-07-20T05:57:40;5.93;;;2.53;;
20073;SDS011;10197;54.282;10.078;2023-07-20T06:00:07;7.30;;;2.78;;
20073;SDS011;10197;54.282;10.078;2023-07-20T06:02:37;4.20;;;2.45;;
20073;SDS011;10197;54.282;10.078;2023-07-20T06:05:04;5.88;;;3.20;;
20073;SDS011;10197;54.282;10.078;2023-07-20T06:07:36;5.72;;;2.90;;
20073;SDS011;10197;54.282;10.078;2023-07-20T06:10:03;6.63;;;3.13;;
20073;SDS011;10197;54.282;10.078;2023-07-20T06:12:30;4.20;;;2.50;;
20073;SDS011;10197;54.282;10.078;2023-07-20T06:14:57;6.43;;;2.85;;
20073;SDS011;10197;54.282;10.078;2023-07-20T06:17:24;6.50;;;2.95;;
20073;SDS011;10197;54.282;10.078;2023-07-20T06:19:51;6.25;;;2.55;;
20073;SDS011;10197;54.282;10.078;2023-07-20T06:22:17;5.88;;;2.53;;
20073;SDS011;10197;54.282;10.078;2023-07-20T06:24:45;5.65;;;2.90;;
20073;SDS011;10197;54.282;10.078;2023-07-20T06:27:12;5.53;;;2.80;;
20073;SDS011;10197;54.282;10.078;2023-07-20T06:29:39;8.45;;;3.65;;
20073;SDS011;10197;54.282;10.078;2023-07-20T06:32:06;7.13;;;3.22;;
20073;SDS011;10197;54.282;10.078;2023-07-20T06:34:34;5.65;;;2.80;;
20073;SDS011;10197;54.282;10.078;2023-07-20T06:37:03;5.75;;;2.50;;
20073;SDS011;10197;54.282;10.078;2023-07-20T06:39:30;8.77;;;2.70;;
20073;SDS011;10197;54.282;10.078;2023-07-20T06:41:58;8.80;;;2.78;;
20073;SDS011;10197;54.282;10.078;2023-07-20T06:44:25;8.07;;;2.97;;
20073;SDS011;10197;54.282;10.078;2023-07-20T06:46:51;4.97;;;2.70;;
20073;SDS011;10197;54.282;10.078;2023-07-20T06:49:23;4.47;;;2.40;;
20073;SDS011;10197;54.282;10.078;2023-07-20T06:51:52;5.45;;;2.70;;
20073;SDS011;10197;54.282;10.078;2023-07-20T06:54:19;6.75;;;2.90;;
20073;SDS011;10197;54.282;10.078;2023-07-20T06:56:46;6.78;;;3.08;;
20073;SDS011;10197;54.282;10.078;2023-07-20T06:59:14;7.13;;;3.20;;
20073;SDS011;10197;54.282;10.078;2023-07-20T07:01:42;7.00;;;2.63;;
20073;SDS011;10197;54.282;10.078;2023-07-20T07:04:09;6.88;;;2.58;;
20073;SDS011;10197;54.282;10.078;2023-07-20T07:06:36;9.40;;;2.90;;
20073;SDS011;10197;54.282;10.078;2023-07-20T07:09:03;7.30;;;3.10;;
20073;SDS011;10197;54.282;10.078;2023-07-20T07:11:30;8.43;;;2.50;;
20073;SDS011;10197;54.282;10.078;2023-07-20T07:13:57;8.73;;;2.60;;
20073;SDS011;10197;54.282;10.078;2023-07-20T07:16:25;6.85;;;2.80;;
20073;SDS011;10197;54.282;10.078;2023-07-20T07:18:52;11.02;;;3.83;;
20073;SDS011;10197;54.282;10.078;2023-07-20T07:21:18;6.25;;;3.05;;
20073;SDS011;10197;54.282;10.078;2023-07-20T07:23:45;7.63;;;2.97;;
20073;SDS011;10197;54.282;10.078;2023-07-20T07:26:12;7.53;;;2.80;;
20073;SDS011;10197;54.282;10.078;2023-07-20T07:28:38;7.93;;;2.60;;
20073;SDS011;10197;54.282;10.078;2023-07-20T07:31:05;6.13;;;2.50;;
20073;SDS011;10197;54.282;10.078;2023-07-20T07:33:34;8.95;;;2.88;;
20073;SDS011;10197;54.282;10.078;2023-07-20T07:36:00;5.35;;;2.67;;
20073;SDS011;10197;54.282;10.078;2023-07-20T07:38:27;6.28;;;2.70;;
20073;SDS011;10197;54.282;10.078;2023-07-20T07:40:55;10.25;;;2.75;;
20073;SDS011;10197;54.282;10.078;2023-07-20T07:43:22;7.85;;;2.42;;
20073;SDS011;10197;54.282;10.078;2023-07-20T07:45:49;5.68;;;2.58;;
20073;SDS011;10197;54.282;10.078;2023-07-20T07:48:15;9.82;;;3.13;;
20073;SDS011;10197;54.282;10.078;2023-07-20T07:50:44;6.88;;;2.38;;
20073;SDS011;10197;54.282;10.078;2023-07-20T07:53:10;5.45;;;2.40;;
20073;SDS011;10197;54.282;10.078;2023-07-20T07:55:38;4.10;;;2.50;;
20073;SDS011;10197;54.282;10.078;2023-07-20T07:58:04;5.57;;;2.65;;
20073;SDS011;10197;54.282;10.078;2023-07-20T08:00:31;4.82;;;2.35;;
20073;SDS011;10197;54.282;10.078;2023-07-20T08:02:58;9.70;;;3.42;;
20073;SDS011;10197;54.282;10.078;2023-07-20T08:05:25;7.10;;;2.40;;
20073;SDS011;10197;54.282;10.078;2023-07-20T08:07:54;6.25;;;2.10;;
20073;SDS011;10197;54.282;10.078;2023-07-20T08:10:21;9.73;;;2.38;;
20073;SDS011;10197;54.282;10.078;2023-07-20T08:12:48;6.93;;;2.30;;
20073;SDS011;10197;54.282;10.078;2023-07-20T08:15:14;7.90;;;2.20;;
20073;SDS011;10197;54.282;10.078;2023-07-20T08:17:42;4.95;;;1.92;;
20073;SDS011;10197;54.282;10.078;2023-07-20T08:20:10;6.18;;;1.83;;
20073;SDS011;10197;54.282;10.078;2023-07-20T08:22:43;3.85;;;1.50;;
20073;SDS011;10197;54.282;10.078;2023-07-20T08:25:12;4.50;;;2.25;;
20073;SDS011;10197;54.282;10.078;2023-07-20T08:27:39;3.97;;;1.30;;
20073;SDS011;10197;54.282;10.078;2023-07-20T08:30:07;2.53;;;1.63;;
20073;SDS011;10197;54.282;10.078;2023-07-20T08:32:37;4.57;;;1.80;;
20073;SDS011;10197;54.282;10.078;2023-07-20T08:35:05;3.10;;;1.58;;
20073;SDS011;10197;54.282;10.078;2023-07-20T08:37:32;4.78;;;1.70;;
20073;SDS011;10197;54.282;10.078;2023-07-20T08:39:59;4.57;;;1.40;;
20073;SDS011;10197;54.282;10.078;2023-07-20T08:42:27;3.70;;;1.50;;
20073;SDS011;10197;54.282;10.078;2023-07-20T08:44:55;3.92;;;1.25;;
20073;SDS011;10197;54.282;10.078;2023-07-20T08:47:22;11.93;;;1.48;;
20073;SDS011;10197;54.282;10.078;2023-07-20T08:49:51;3.65;;;1.80;;
20073;SDS011;10197;54.282;10.078;2023-07-20T08:52:18;4.30;;;1.63;;
20073;SDS011;10197;54.282;10.078;2023-07-20T08:54:45;4.13;;;1.50;;
20073;SDS011;10197;54.282;10.078;2023-07-20T08:57:12;5.20;;;1.73;;
20073;SDS011;10197;54.282;10.078;2023-07-20T08:59:41;5.50;;;1.35;;
20073;SDS011;10197;54.282;10.078;2023-07-20T09:02:08;5.55;;;1.45;;
20073;SDS011;10197;54.282;10.078;2023-07-20T09:04:39;4.60;;;1.75;;
20073;SDS011;10197;54.282;10.078;2023-07-20T09:07:06;4.15;;;1.45;;
20073;SDS011;10197;54.282;10.078;2023-07-20T09:09:33;2.55;;;1.30;;
20073;SDS011;10197;54.282;10.078;2023-07-20T09:12:00;1.30;;;1.20;;
20073;SDS011;10197;54.282;10.078;2023-07-20T09:14:27;2.78;;;1.30;;
20073;SDS011;10197;54.282;10.078;2023-07-20T09:16:58;4.22;;;1.48;;
20073;SDS011;10197;54.282;10.078;2023-07-20T09:19:25;3.60;;;1.55;;
20073;SDS011;10197;54.282;10.078;2023-07-20T09:21:52;3.22;;;1.25;;
20073;SDS011;10197;54.282;10.078;2023-07-20T09:24:18;2.97;;;1.08;;
20073;SDS011;10197;54.282;10.078;2023-07-20T09:26:46;2.55;;;1.08;;
20073;SDS011;10197;54.282;10.078;2023-07-20T09:29:16;2.85;;;1.30;;
20073;SDS011;10197;54.282;10.078;2023-07-20T09:31:46;4.50;;;1.88;;
20073;SDS011;10197;54.282;10.078;2023-07-20T09:34:27;5.13;;;1.35;;
20073;SDS011;10197;54.282;10.078;2023-07-20T09:36:55;4.47;;;1.85;;
20073;SDS011;10197;54.282;10.078;2023-07-20T09:39:22;1.92;;;1.10;;
20073;SDS011;10197;54.282;10.078;2023-07-20T09:41:49;3.90;;;1.13;;
20073;SDS011;10197;54.282;10.078;2023-07-20T09:44:19;3.53;;;1.10;;
20073;SDS011;10197;54.282;10.078;2023-07-20T09:46:46;4.25;;;1.50;;
20073;SDS011;10197;54.282;10.078;2023-07-20T09:49:15;2.47;;;0.90;;
20073;SDS011;10197;54.282;10.078;2023-07-20T09:51:44;1.52;;;0.88;;
20073;SDS011;10197;54.282;10.078;2023-07-20T09:54:11;1.95;;;1.02;;
20073;SDS011;10197;54.282;10.078;2023-07-20T09:56:39;1.05;;;0.82;;
20073;SDS011;10197;54.282;10.078;2023-07-20T09:59:07;1.98;;;1.00;;
20073;SDS011;10197;54.282;10.078;2023-07-20T10:01:34;2.13;;;0.90;;
20073;SDS011;10197;54.282;10.078;2023-07-20T10:04:02;0.82;;;0.60;;
20073;SDS011;10197;54.282;10.078;2023-07-20T10:06:32;1.60;;;0.80;;
20073;SDS011;10197;54.282;10.078;2023-07-20T10:09:00;1.88;;;0.70;;
20073;SDS011;10197;54.282;10.078;2023-07-20T10:11:29;1.83;;;0.80;;
20073;SDS011;10197;54.282;10.078;2023-07-20T10:13:57;2.83;;;0.90;;
20073;SDS011;10197;54.282;10.078;2023-07-20T10:16:26;4.90;;;0.80;;
20073;SDS011;10197;54.282;10.078;2023-07-20T10:18:59;1.45;;;0.77;;
20073;SDS011;10197;54.282;10.078;2023-07-20T10:21:31;2.42;;;0.82;;
20073;SDS011;10197;54.282;10.078;2023-07-20T10:23:59;3.38;;;1.02;;
20073;SDS011;10197;54.282;10.078;2023-07-20T10:26:27;1.83;;;0.70;;
20073;SDS011;10197;54.282;10.078;2023-07-20T10:28:54;4.82;;;1.23;;
20073;SDS011;10197;54.282;10.078;2023-07-20T10:31:22;4.47;;;1.10;;
20073;SDS011;10197;54.282;10.078;2023-07-20T10:33:49;2.85;;;1.25;;
20073;SDS011;10197;54.282;10.078;2023-07-20T10:36:21;3.05;;;1.63;;
20073;SDS011;10197;54.282;10.078;2023-07-20T10:38:53;3.58;;;1.20;;
20073;SDS011;10197;54.282;10.078;2023-07-20T10:41:23;3.83;;;1.73;;
20073;SDS011;10197;54.282;10.078;2023-07-20T10:43:58;2.58;;;1.27;;
20073;SDS011;10197;54.282;10.078;2023-07-20T10:46:36;3.78;;;1.50;;
20073;SDS011;10197;54.282;10.078;2023-07-20T10:49:09;5.68;;;1.60;;
20073;SDS011;10197;54.282;10.078;2023-07-20T10:51:39;4.15;;;1.30;;
20073;SDS011;10197;54.282;10.078;2023-07-20T10:54:09;4.63;;;1.63;;
20073;SDS011;10197;54.282;10.078;2023-07-20T10:56:36;4.35;;;1.50;;
20073;SDS011;10197;54.282;10.078;2023-07-20T10:59:04;3.80;;;1.40;;
20073;SDS011;10197;54.282;10.078;2023-07-20T11:01:43;6.68;;;1.67;;
20073;SDS011;10197;54.282;10.078;2023-07-20T11:04:12;3.33;;;1.52;;
20073;SDS011;10197;54.282;10.078;2023-07-20T11:06:41;7.53;;;1.75;;
20073;SDS011;10197;54.282;10.078;2023-07-20T11:09:11;5.43;;;1.50;;
20073;SDS011;10197;54.282;10.078;2023-07-20T11:11:40;4.45;;;1.60;;
20073;SDS011;10197;54.282;10.078;2023-07-20T11:14:08;4.07;;;2.00;;
20073;SDS011;10197;54.282;10.078;2023-07-20T11:16:39;7.78;;;2.10;;
20073;SDS011;10197;54.282;10.078;2023-07-20T11:19:13;7.10;;;2.42;;
20073;SDS011;10197;54.282;10.078;2023-07-20T11:21:42;5.80;;;1.92;;
20073;SDS011;10197;54.282;10.078;2023-07-20T11:24:11;4.85;;;2.65;;
20073;SDS011;10197;54.282;10.078;2023-07-20T11:26:42;6.32;;;2.00;;
20073;SDS011;10197;54.282;10.078;2023-07-20T11:29:09;9.05;;;2.33;;
20073;SDS011;10197;54.282;10.078;2023-07-20T11:31:36;5.20;;;2.00;;
20073;SDS011;10197;54.282;10.078;2023-07-20T11:34:03;6.15;;;1.65;;
20073;SDS011;10197;54.282;10.078;2023-07-20T11:36:30;8.48;;;1.95;;
20073;SDS011;10197;54.282;10.078;2023-07-20T11:38:57;6.65;;;1.85;;
20073;SDS011;10197;54.282;10.078;2023-07-20T11:41:26;7.80;;;1.70;;
20073;SDS011;10197;54.282;10.078;2023-07-20T11:43:54;5.32;;;1.85;;
20073;SDS011;10197;54.282;10.078;2023-07-20T11:46:21;4.72;;;1.60;;
20073;SDS011;10197;54.282;10.078;2023-07-20T11:48:47;3.50;;;1.75;;
20073;SDS011;10197;54.282;10.078;2023-07-20T11:51:14;6.93;;;1.90;;
20073;SDS011;10197;54.282;10.078;2023-07-20T11:53:42;4.43;;;1.75;;
20073;SDS011;10197;54.282;10.078;2023-07-20T11:56:09;6.97;;;1.63;;
20073;SDS011;10197;54.282;10.078;2023-07-20T11:58:42;3.67;;;1.52;;
20073;SDS011;10197;54.282;10.078;2023-07-20T12:01:11;4.30;;;1.38;;
20073;SDS011;10197;54.282;10.078;2023-07-20T12:03:38;3.70;;;1.70;;
20073;SDS011;10197;54.282;10.078;2023-07-20T12:06:08;5.22;;;1.58;;
20073;SDS011;10197;54.282;10.078;2023-07-20T12:08:37;3.88;;;1.55;;
20073;SDS011;10197;54.282;10.078;2023-07-20T12:11:05;4.82;;;1.45;;
20073;SDS011;10197;54.282;10.078;2023-07-20T12:13:38;4.90;;;1.33;;
20073;SDS011;10197;54.282;10.078;2023-07-20T12:16:12;7.00;;;1.65;;
20073;SDS011;10197;54.282;10.078;2023-07-20T12:18:41;3.92;;;1.23;;
20073;SDS011;10197;54.282;10.078;2023-07-20T12:21:08;5.90;;;1.60;;
20073;SDS011;10197;54.282;10.078;2023-07-20T12:23:35;4.53;;;1.60;;
20073;SDS011;10197;54.282;10.078;2023-07-20T12:26:05;3.80;;;1.40;;
20073;SDS011;10197;54.282;10.078;2023-07-20T12:28:32;6.00;;;2.00;;
20073;SDS011;10197;54.282;10.078;2023-07-20T12:30:59;3.33;;;1.33;;
20073;SDS011;10197;54.282;10.078;2023-07-20T12:33:27;6.63;;;1.60;;
20073;SDS011;10197;54.282;10.078;2023-07-20T12:35:54;4.72;;;1.40;;
20073;SDS011;10197;54.282;10.078;2023-07-20T12:38:21;5.75;;;1.75;;
20073;SDS011;10197;54.282;10.078;2023-07-20T12:40:48;4.72;;;1.60;;
20073;SDS011;10197;54.282;10.078;2023-07-20T12:43:14;5.07;;;1.90;;
20073;SDS011;10197;54.282;10.078;2023-07-20T12:45:41;7.07;;;1.63;;
20073;SDS011;10197;54.282;10.078;2023-07-20T12:48:09;5.55;;;1.70;;
20073;SDS011;10197;54.282;10.078;2023-07-20T12:50:37;5.78;;;1.70;;
20073;SDS011;10197;54.282;10.078;2023-07-20T12:53:03;4.22;;;1.30;;
20073;SDS011;10197;54.282;10.078;2023-07-20T12:55:30;4.38;;;1.70;;
20073;SDS011;10197;54.282;10.078;2023-07-20T12:57:58;7.85;;;1.60;;
20073;SDS011;10197;54.282;10.078;2023-07-20T13:00:25;7.65;;;1.88;;
20073;SDS011;10197;54.282;10.078;2023-07-20T13:02:52;6.72;;;1.63;;
20073;SDS011;10197;54.282;10.078;2023-07-20T13:05:18;6.25;;;1.60;;
20073;SDS011;10197;54.282;10.078;2023-07-20T13:07:46;6.43;;;2.00;;
20073;SDS011;10197;54.282;10.078;2023-07-20T13:10:13;4.57;;;1.58;;
20073;SDS011;10197;54.282;10.078;2023-07-20T13:12:40;4.72;;;1.52;;
20073;SDS011;10197;54.282;10.078;2023-07-20T13:15:07;3.58;;;1.15;;
20073;SDS011;10197;54.282;10.078;2023-07-20T13:17:34;2.83;;;1.00;;
20073;SDS011;10197;54.282;10.078;2023-07-20T13:20:02;3.97;;;1.00;;
20073;SDS011;10197;54.282;10.078;2023-07-20T13:22:29;2.35;;;1.00;;
20073;SDS011;10197;54.282;10.078;2023-07-20T13:24:58;3.20;;;1.00;;
20073;SDS011;10197;54.282;10.078;2023-07-20T13:27:24;2.05;;;1.10;;
20073;SDS011;10197;54.282;10.078;2023-07-20T13:29:51;2.53;;;1.30;;
20073;SDS011;10197;54.282;10.078;2023-07-20T13:32:19;5.13;;;1.40;;
20073;SDS011;10197;54.282;10.078;2023-07-20T13:34:46;2.50;;;1.38;;
20073;SDS011;10197;54.282;10.078;2023-07-20T13:37:13;3.28;;;1.60;;
20073;SDS011;10197;54.282;10.078;2023-07-20T13:39:42;4.40;;;1.48;;
20073;SDS011;10197;54.282;10.078;2023-07-20T13:42:11;4.20;;;1.20;;
20073;SDS011;10197;54.282;10.078;2023-07-20T13:44:37;3.10;;;1.20;;
20073;SDS011;10197;54.282;10.078;2023-07-20T13:47:05;2.55;;;1.50;;
20073;SDS011;10197;54.282;10.078;2023-07-20T13:49:32;2.30;;;1.10;;
20073;SDS011;10197;54.282;10.078;2023-07-20T13:51:59;3.33;;;1.30;;
20073;SDS011;10197;54.282;10.078;2023-07-20T13:54:26;4.15;;;1.40;;
20073;SDS011;10197;54.282;10.078;2023-07-20T13:56:53;2.83;;;1.05;;
20073;SDS011;10197;54.282;10.078;2023-07-20T13:59:21;4.18;;;1.70;;
20073;SDS011;10197;54.282;10.078;2023-07-20T14:01:47;4.53;;;1.42;;
20073;SDS011;10197;54.282;10.078;2023-07-20T14:04:14;5.38;;;1.50;;
20073;SDS011;10197;54.282;10.078;2023-07-20T14:06:41;3.60;;;1.30;;
20073;SDS011;10197;54.282;10.078;2023-07-20T14:09:08;6.75;;;1.27;;
20073;SDS011;10197;54.282;10.078;2023-07-20T14:11:35;5.82;;;1.30;;
20073;SDS011;10197;54.282;10.078;2023-07-20T14:14:02;2.72;;;1.10;;
20073;SDS011;10197;54.282;10.078;2023-07-20T14:16:31;4.05;;;1.30;;
20073;SDS011;10197;54.282;10.078;2023-07-20T14:18:58;3.33;;;1.00;;
20073;SDS011;10197;54.282;10.078;2023-07-20T14:21:25;4.55;;;1.27;;
20073;SDS011;10197;54.282;10.078;2023-07-20T14:23:52;2.20;;;1.30;;
20073;SDS011;10197;54.282;10.078;2023-07-20T14:26:19;2.92;;;1.30;;
20073;SDS011;10197;54.282;10.078;2023-07-20T14:28:45;5.55;;;1.55;;
20073;SDS011;10197;54.282;10.078;2023-07-20T14:31:12;4.57;;;1.40;;
20073;SDS011;10197;54.282;10.078;2023-07-20T14:33:41;5.63;;;1.50;;
20073;SDS011;10197;54.282;10.078;2023-07-20T14:36:08;10.63;;;1.80;;
20073;SDS011;10197;54.282;10.078;2023-07-20T14:38:35;7.03;;;1.58;;
20073;SDS011;10197;54.282;10.078;2023-07-20T14:41:03;4.75;;;1.27;;